Terminal Aerodrome Forecast
Issued by NWS

Home | Current Version | Previous Version | Text Only | Print | Product List | Glossary On
Versions: 1 2 3 4 5 6 7 8 9 10 11 12 13 14 15 16 17 18 19 20 21
000
FTUS46 KMTR 171100
TAFSNS
TAF
KSNS 171137Z 1712/1812 14004KT P6SM BKN007
     FM171600 VRB03KT P6SM SKC
     FM171900 30012KT P6SM SKC
     FM180400 24004KT P6SM BKN009
     FM180800 VRB03KT P6SM OVC006=

USA.gov is the U.S. government's official web portal to all federal, state and local government web resources and services.